Breedsville, MI (49027)

10:29 AM EDT on May 06, 2015 (GMT -0400)
Columbia Twp | | Change Station
CLOSE
Current Station
Personal Weather Station
Location: Grand Junction, MI
Elevation: 665 ft
Nearby Weather Stations

Elev 665 ft 42.41 °N, 86.05 °W | Updated 4 seconds ago

Overcast
Overcast
59.6 °F
Feels Like 59.6 °F
N
3.4
Wind Variable Wind from ENE
Gusts 6.9 mph

Today
High -- | Low -- °F
--% Chance of Precip.
Yesterday
High -- | Low -- °F
Precip. -- in
6:33 AM 8:49 PM
Waning Gibbous, 94% visible
Pressure 30.20 in
Visibility 4.0 miles
Clouds Mostly Cloudy 500 ft
Mostly Cloudy 8500 ft
Dew Point 58 °F
Humidity 93%
Rainfall 0.00 in
Snow Depth Not available.
UV 3 out of 12
Pollen 7.20 out of 12
Air Quality Not available.
Flu Activity Regional
METAR KLWA 061415Z AUTO 15006KT 4SM HZ BKN005 BKN085 16/14 A3020 RMK AO2 T01590135

More Conditions Fewer Conditions

Pressure 30.20 in
Visibility 4.0 miles
Clouds Mostly Cloudy 500 ft
Mostly Cloudy 8500 ft
Dew Point 58 °F
Humidity 93%
Rainfall 0.00 in
Snow Depth Not available.
UV 3 out of 12
Pollen 7.20 out of 12
Air Quality Not available.
Flu Activity Regional
METAR KLWA 061415Z AUTO 15006KT 4SM HZ BKN005 BKN085 16/14 A3020 RMK AO2 T01590135

More Conditions Fewer Conditions

10-Day Weather Forecast

Almanac

Astronomy

May. 06, 2015 Rise Set
Actual Time
Civil Twilight
Nautical Twilight
Astronomical Twilight
Moon
Length of Visible Light
Length of Day
Tomorrow will be .
, % of the Moon is Illuminated

Today's Extremes

State Highs State Lows

Community

WunderPhotos

Upload Photos

1,818,914 photos uploaded!

WunderBlogs® & News

Nearby

Air Quality

  Air Quality AQ Index Pollutant
Not available.

Snow Depth

Station Depth Elevation

Earthquake Activity

City Distance Mag. Time & Date
Minimum magnitude displayed is 2.5.

Coastal Water Temperatures

Place Temperature

Stations

Nearby Weather Stations

Station Location Temp. Windchill Dew Point Humidity Wind Precip. Elev Updated Type